This is the latest recevied weather packets stored in our database for station/object KA7RLM. If no packets are shown the sender has not sent any weather packets the latest 10 day(s).
| Time | Temp. | Humidity | Pressure | Rain* | Wind** | Luminosity | Snow |
|---|---|---|---|---|---|---|---|
| 1778188820 | 18.89° C | 54% | 1019.4 hPa | 0 mm | - | - | - |
| 1778186416 | 17.78° C | 57% | 1019.6 hPa | 0 mm | - | - | - |
| 1778182818 | 16.11° C | 61% | 1020.1 hPa | 0 mm | - | - | - |
| 1778179232 | 16.67° C | 60% | 1020.5 hPa | 0 mm | - | - | - |
| 1778176833 | 14.44° C | 68% | 1020.8 hPa | 0 mm | - | - | - |
| 1778175019 | 13.33° C | 69% | 1020.9 hPa | 0 mm | - | - | - |
| 1778171440 | 13.89° C | 71% | 1020.9 hPa | 0 mm | - | - | - |
| 1778166020 | 11.11° C | 80% | 1021.4 hPa | 0 mm | - | - | - |
| 1778165423 | 11.11° C | 81% | 1021.4 hPa | 0 mm | - | - | - |
| 1778164230 | 10.56° C | 83% | 1021.4 hPa | 0 mm | - | - | - |
| 1778163616 | 10.56° C | 84% | 1021.3 hPa | 0 mm | - | - | - |
| 1778162422 | 10° C | 85% | 1021.1 hPa | 0 mm | - | - | - |
| 1778161825 | 10° C | 85% | 1021.2 hPa | 0 mm | - | - | - |
| 1778161228 | 10° C | 84% | 1021.2 hPa | 0 mm | - | - | - |
| 1778158228 | 9.44° C | 87% | 1021 hPa | 0 mm | - | - | - |
| 1778155226 | 9.44° C | 85% | 1021.4 hPa | 0 mm | - | - | - |
| 1778153438 | 10° C | 83% | 1021.5 hPa | 0 mm | - | - | - |
| 1778152821 | 10.56° C | 83% | 1021.5 hPa | 0 mm | - | - | - |
| 1778151627 | 10.56° C | 82% | 1021.6 hPa | 0 mm | - | - | - |
| 1778147426 | 10.56° C | 82% | 1021.6 hPa | 0 mm | - | - | - |
| 1778144424 | 11.11° C | 82% | 1021.5 hPa | 0 mm | - | - | - |
| 1778143231 | 11.67° C | 82% | 1021.6 hPa | 0 mm | - | - | - |
| 1778142066 | 11.67° C | 84% | 1021.6 hPa | 0 mm | - | - | - |
| 1778139625 | 11.67° C | 84% | 1021.6 hPa | 0 mm | - | - | - |
| 1778137220 | 12.22° C | 82% | 1021.6 hPa | 0 mm | - | - | - |
* Rain latest hour (hover to see other rain measurements)
** Current wind speed in m/s (hover to see current wind gust speed)